sensor_id;sensor_type;location;lat;lon;timestamp;P1;durP1;ratioP1;P2;durP2;ratioP2
16282;SDS011;8249;48.708;9.030;2023-06-10T00:01:39;185.03;;;177.23;;
16282;SDS011;8249;48.708;9.030;2023-06-10T00:04:08;176.80;;;169.17;;
16282;SDS011;8249;48.708;9.030;2023-06-10T00:06:35;202.37;;;193.83;;
16282;SDS011;8249;48.708;9.030;2023-06-10T00:09:02;211.47;;;202.43;;
16282;SDS011;8249;48.708;9.030;2023-06-10T00:11:31;206.73;;;197.83;;
16282;SDS011;8249;48.708;9.030;2023-06-10T00:13:58;195.47;;;187.10;;
16282;SDS011;8249;48.708;9.030;2023-06-10T00:16:25;203.10;;;193.60;;
16282;SDS011;8249;48.708;9.030;2023-06-10T00:18:52;231.30;;;221.23;;
16282;SDS011;8249;48.708;9.030;2023-06-10T00:21:22;225.10;;;215.37;;
16282;SDS011;8249;48.708;9.030;2023-06-10T00:23:50;247.90;;;237.03;;
16282;SDS011;8249;48.708;9.030;2023-06-10T00:26:17;261.23;;;250.03;;
16282;SDS011;8249;48.708;9.030;2023-06-10T00:28:44;268.77;;;257.03;;
16282;SDS011;8249;48.708;9.030;2023-06-10T00:31:11;267.37;;;255.53;;
16282;SDS011;8249;48.708;9.030;2023-06-10T00:33:38;274.07;;;262.03;;
16282;SDS011;8249;48.708;9.030;2023-06-10T00:36:05;268.43;;;256.80;;
16282;SDS011;8249;48.708;9.030;2023-06-10T00:38:33;230.43;;;220.53;;
16282;SDS011;8249;48.708;9.030;2023-06-10T00:41:01;197.50;;;189.00;;
16282;SDS011;8249;48.708;9.030;2023-06-10T00:43:28;192.17;;;183.93;;
16282;SDS011;8249;48.708;9.030;2023-06-10T00:45:54;207.87;;;198.97;;
16282;SDS011;8249;48.708;9.030;2023-06-10T00:48:22;184.87;;;176.80;;
16282;SDS011;8249;48.708;9.030;2023-06-10T00:50:49;200.33;;;191.70;;
16282;SDS011;8249;48.708;9.030;2023-06-10T00:53:17;194.10;;;185.43;;
16282;SDS011;8249;48.708;9.030;2023-06-10T00:55:45;204.90;;;196.07;;
16282;SDS011;8249;48.708;9.030;2023-06-10T00:58:13;187.97;;;179.77;;
16282;SDS011;8249;48.708;9.030;2023-06-10T01:00:40;236.23;;;226.00;;
16282;SDS011;8249;48.708;9.030;2023-06-10T01:03:10;207.03;;;197.80;;
16282;SDS011;8249;48.708;9.030;2023-06-10T01:05:37;219.47;;;209.90;;
16282;SDS011;8249;48.708;9.030;2023-06-10T01:08:07;212.20;;;202.80;;
16282;SDS011;8249;48.708;9.030;2023-06-10T01:10:41;215.20;;;205.73;;
16282;SDS011;8249;48.708;9.030;2023-06-10T01:13:14;206.57;;;197.30;;
16282;SDS011;8249;48.708;9.030;2023-06-10T01:15:43;199.77;;;190.93;;
16282;SDS011;8249;48.708;9.030;2023-06-10T01:18:11;208.83;;;199.33;;
16282;SDS011;8249;48.708;9.030;2023-06-10T01:20:40;186.43;;;178.07;;
16282;SDS011;8249;48.708;9.030;2023-06-10T01:23:11;205.70;;;196.50;;
16282;SDS011;8249;48.708;9.030;2023-06-10T01:25:39;218.73;;;208.83;;
16282;SDS011;8249;48.708;9.030;2023-06-10T01:28:10;210.27;;;201.00;;
16282;SDS011;8249;48.708;9.030;2023-06-10T01:30:42;289.17;;;275.63;;
16282;SDS011;8249;48.708;9.030;2023-06-10T01:33:15;250.73;;;239.53;;
16282;SDS011;8249;48.708;9.030;2023-06-10T01:35:48;266.33;;;254.23;;
16282;SDS011;8249;48.708;9.030;2023-06-10T01:38:18;296.37;;;282.33;;
16282;SDS011;8249;48.708;9.030;2023-06-10T01:40:47;291.90;;;278.27;;
16282;SDS011;8249;48.708;9.030;2023-06-10T01:43:15;289.43;;;275.30;;
16282;SDS011;8249;48.708;9.030;2023-06-10T01:45:42;293.17;;;278.33;;
16282;SDS011;8249;48.708;9.030;2023-06-10T01:48:09;305.73;;;289.97;;
16282;SDS011;8249;48.708;9.030;2023-06-10T01:50:36;349.80;;;331.97;;
16282;SDS011;8249;48.708;9.030;2023-06-10T01:53:03;370.37;;;351.87;;
16282;SDS011;8249;48.708;9.030;2023-06-10T01:55:32;357.13;;;339.97;;
16282;SDS011;8249;48.708;9.030;2023-06-10T01:57:59;379.23;;;360.77;;
16282;SDS011;8249;48.708;9.030;2023-06-10T02:00:26;375.60;;;357.53;;
16282;SDS011;8249;48.708;9.030;2023-06-10T02:02:53;370.90;;;353.13;;
16282;SDS011;8249;48.708;9.030;2023-06-10T02:05:20;355.07;;;338.47;;
16282;SDS011;8249;48.708;9.030;2023-06-10T02:07:48;352.83;;;336.40;;
16282;SDS011;8249;48.708;9.030;2023-06-10T02:10:15;315.87;;;301.20;;
16282;SDS011;8249;48.708;9.030;2023-06-10T02:12:43;349.97;;;333.77;;
16282;SDS011;8249;48.708;9.030;2023-06-10T02:15:10;331.70;;;316.13;;
16282;SDS011;8249;48.708;9.030;2023-06-10T02:17:37;345.73;;;329.47;;
16282;SDS011;8249;48.708;9.030;2023-06-10T02:20:04;356.53;;;339.70;;
16282;SDS011;8249;48.708;9.030;2023-06-10T02:22:33;334.60;;;319.00;;
16282;SDS011;8249;48.708;9.030;2023-06-10T02:25:00;370.27;;;353.03;;
16282;SDS011;8249;48.708;9.030;2023-06-10T02:27:27;381.03;;;363.20;;
16282;SDS011;8249;48.708;9.030;2023-06-10T02:29:56;387.03;;;368.87;;
16282;SDS011;8249;48.708;9.030;2023-06-10T02:32:23;359.77;;;343.17;;
16282;SDS011;8249;48.708;9.030;2023-06-10T02:34:51;357.87;;;341.30;;
16282;SDS011;8249;48.708;9.030;2023-06-10T02:37:21;341.57;;;325.70;;
16282;SDS011;8249;48.708;9.030;2023-06-10T02:39:48;356.10;;;339.60;;
16282;SDS011;8249;48.708;9.030;2023-06-10T02:42:15;359.70;;;343.10;;
16282;SDS011;8249;48.708;9.030;2023-06-10T02:44:42;332.67;;;316.30;;
16282;SDS011;8249;48.708;9.030;2023-06-10T02:47:15;356.13;;;338.93;;
16282;SDS011;8249;48.708;9.030;2023-06-10T02:49:42;328.10;;;312.30;;
16282;SDS011;8249;48.708;9.030;2023-06-10T02:52:09;321.63;;;306.03;;
16282;SDS011;8249;48.708;9.030;2023-06-10T02:54:37;318.53;;;303.33;;
16282;SDS011;8249;48.708;9.030;2023-06-10T02:57:06;323.87;;;308.07;;
16282;SDS011;8249;48.708;9.030;2023-06-10T02:59:35;333.47;;;317.77;;
16282;SDS011;8249;48.708;9.030;2023-06-10T03:02:02;353.90;;;337.10;;
16282;SDS011;8249;48.708;9.030;2023-06-10T03:04:37;358.03;;;340.93;;
16282;SDS011;8249;48.708;9.030;2023-06-10T03:07:09;317.87;;;302.83;;
16282;SDS011;8249;48.708;9.030;2023-06-10T03:09:36;318.40;;;303.47;;
16282;SDS011;8249;48.708;9.030;2023-06-10T03:12:09;276.33;;;263.80;;
16282;SDS011;8249;48.708;9.030;2023-06-10T03:14:42;280.57;;;267.97;;
16282;SDS011;8249;48.708;9.030;2023-06-10T03:17:09;276.37;;;264.03;;
16282;SDS011;8249;48.708;9.030;2023-06-10T03:19:41;270.23;;;258.43;;
16282;SDS011;8249;48.708;9.030;2023-06-10T03:22:08;304.17;;;290.27;;
16282;SDS011;8249;48.708;9.030;2023-06-10T03:24:53;270.17;;;258.10;;
16282;SDS011;8249;48.708;9.030;2023-06-10T03:27:22;313.57;;;299.57;;
16282;SDS011;8249;48.708;9.030;2023-06-10T03:29:53;293.40;;;280.27;;
16282;SDS011;8249;48.708;9.030;2023-06-10T03:32:21;278.37;;;266.17;;
16282;SDS011;8249;48.708;9.030;2023-06-10T03:34:49;227.53;;;217.63;;
16282;SDS011;8249;48.708;9.030;2023-06-10T03:37:17;251.03;;;239.90;;
16282;SDS011;8249;48.708;9.030;2023-06-10T03:39:47;248.00;;;237.13;;
16282;SDS011;8249;48.708;9.030;2023-06-10T03:42:14;225.00;;;215.23;;
16282;SDS011;8249;48.708;9.030;2023-06-10T03:44:41;224.90;;;215.00;;
16282;SDS011;8249;48.708;9.030;2023-06-10T03:47:07;216.23;;;206.73;;
16282;SDS011;8249;48.708;9.030;2023-06-10T03:49:36;234.23;;;224.03;;
16282;SDS011;8249;48.708;9.030;2023-06-10T03:52:05;236.83;;;226.57;;
16282;SDS011;8249;48.708;9.030;2023-06-10T03:54:32;222.00;;;212.40;;
16282;SDS011;8249;48.708;9.030;2023-06-10T03:57:01;243.57;;;233.00;;
16282;SDS011;8249;48.708;9.030;2023-06-10T03:59:29;218.33;;;208.93;;
16282;SDS011;8249;48.708;9.030;2023-06-10T04:01:56;234.77;;;224.70;;
16282;SDS011;8249;48.708;9.030;2023-06-10T04:04:23;228.97;;;219.20;;
16282;SDS011;8249;48.708;9.030;2023-06-10T04:06:50;237.77;;;227.47;;
16282;SDS011;8249;48.708;9.030;2023-06-10T04:09:19;255.47;;;244.27;;
16282;SDS011;8249;48.708;9.030;2023-06-10T04:11:46;247.37;;;236.53;;
16282;SDS011;8249;48.708;9.030;2023-06-10T04:14:13;257.17;;;246.00;;
16282;SDS011;8249;48.708;9.030;2023-06-10T04:16:42;260.63;;;249.27;;
16282;SDS011;8249;48.708;9.030;2023-06-10T04:19:10;266.23;;;254.67;;
16282;SDS011;8249;48.708;9.030;2023-06-10T04:21:37;278.60;;;266.10;;
16282;SDS011;8249;48.708;9.030;2023-06-10T04:24:04;275.73;;;263.43;;
16282;SDS011;8249;48.708;9.030;2023-06-10T04:26:33;269.03;;;257.03;;
16282;SDS011;8249;48.708;9.030;2023-06-10T04:29:02;274.77;;;262.10;;
16282;SDS011;8249;48.708;9.030;2023-06-10T04:31:30;248.63;;;237.63;;
16282;SDS011;8249;48.708;9.030;2023-06-10T04:33:57;231.73;;;221.30;;
16282;SDS011;8249;48.708;9.030;2023-06-10T04:36:26;230.77;;;220.67;;
16282;SDS011;8249;48.708;9.030;2023-06-10T04:38:54;281.63;;;268.73;;
16282;SDS011;8249;48.708;9.030;2023-06-10T04:41:22;306.40;;;292.17;;
16282;SDS011;8249;48.708;9.030;2023-06-10T04:43:51;386.90;;;368.53;;
16282;SDS011;8249;48.708;9.030;2023-06-10T04:46:19;349.10;;;332.90;;
16282;SDS011;8249;48.708;9.030;2023-06-10T04:48:46;290.97;;;278.00;;
16282;SDS011;8249;48.708;9.030;2023-06-10T04:51:13;265.47;;;254.27;;
16282;SDS011;8249;48.708;9.030;2023-06-10T04:53:40;305.37;;;291.93;;
16282;SDS011;8249;48.708;9.030;2023-06-10T04:56:07;333.20;;;318.73;;
16282;SDS011;8249;48.708;9.030;2023-06-10T04:58:34;333.40;;;318.63;;
16282;SDS011;8249;48.708;9.030;2023-06-10T05:01:02;342.70;;;327.30;;
16282;SDS011;8249;48.708;9.030;2023-06-10T05:03:29;384.00;;;366.03;;
16282;SDS011;8249;48.708;9.030;2023-06-10T05:05:56;375.60;;;357.30;;
16282;SDS011;8249;48.708;9.030;2023-06-10T05:08:23;322.47;;;307.73;;
16282;SDS011;8249;48.708;9.030;2023-06-10T05:10:50;316.90;;;302.50;;
16282;SDS011;8249;48.708;9.030;2023-06-10T05:13:17;293.03;;;280.03;;
16282;SDS011;8249;48.708;9.030;2023-06-10T05:15:44;302.10;;;288.90;;
16282;SDS011;8249;48.708;9.030;2023-06-10T05:18:13;325.87;;;311.47;;
16282;SDS011;8249;48.708;9.030;2023-06-10T05:20:39;299.67;;;286.90;;
16282;SDS011;8249;48.708;9.030;2023-06-10T05:23:06;314.80;;;301.23;;
16282;SDS011;8249;48.708;9.030;2023-06-10T05:25:33;298.97;;;285.77;;
16282;SDS011;8249;48.708;9.030;2023-06-10T05:28:01;303.13;;;289.70;;
16282;SDS011;8249;48.708;9.030;2023-06-10T05:30:28;325.60;;;311.23;;
16282;SDS011;8249;48.708;9.030;2023-06-10T05:32:55;373.37;;;356.87;;
16282;SDS011;8249;48.708;9.030;2023-06-10T05:35:24;327.70;;;312.80;;
16282;SDS011;8249;48.708;9.030;2023-06-10T05:37:51;307.43;;;293.80;;
16282;SDS011;8249;48.708;9.030;2023-06-10T05:40:17;274.80;;;262.67;;
16282;SDS011;8249;48.708;9.030;2023-06-10T05:42:44;280.87;;;268.27;;
16282;SDS011;8249;48.708;9.030;2023-06-10T05:45:11;209.80;;;200.90;;
16282;SDS011;8249;48.708;9.030;2023-06-10T05:47:39;152.33;;;145.73;;
16282;SDS011;8249;48.708;9.030;2023-06-10T05:50:06;123.50;;;117.90;;
16282;SDS011;8249;48.708;9.030;2023-06-10T05:52:36;161.20;;;153.67;;
16282;SDS011;8249;48.708;9.030;2023-06-10T05:55:05;299.43;;;284.07;;
16282;SDS011;8249;48.708;9.030;2023-06-10T05:57:33;311.43;;;295.73;;
16282;SDS011;8249;48.708;9.030;2023-06-10T06:00:00;306.63;;;290.63;;
16282;SDS011;8249;48.708;9.030;2023-06-10T06:02:27;326.00;;;309.30;;
16282;SDS011;8249;48.708;9.030;2023-06-10T06:04:54;345.27;;;327.90;;
16282;SDS011;8249;48.708;9.030;2023-06-10T06:07:21;345.17;;;327.80;;
16282;SDS011;8249;48.708;9.030;2023-06-10T06:09:49;318.60;;;304.20;;
16282;SDS011;8249;48.708;9.030;2023-06-10T06:12:16;299.30;;;285.90;;
16282;SDS011;8249;48.708;9.030;2023-06-10T06:14:43;307.23;;;293.77;;
16282;SDS011;8249;48.708;9.030;2023-06-10T06:17:10;310.60;;;296.77;;
16282;SDS011;8249;48.708;9.030;2023-06-10T06:19:37;413.50;;;391.40;;
16282;SDS011;8249;48.708;9.030;2023-06-10T06:22:04;301.80;;;288.73;;
16282;SDS011;8249;48.708;9.030;2023-06-10T06:24:31;288.53;;;276.20;;
16282;SDS011;8249;48.708;9.030;2023-06-10T06:27:00;285.33;;;273.23;;
16282;SDS011;8249;48.708;9.030;2023-06-10T06:29:26;281.97;;;270.03;;
16282;SDS011;8249;48.708;9.030;2023-06-10T06:31:55;272.88;;;260.90;;
16282;SDS011;8249;48.708;9.030;2023-06-10T06:34:21;297.27;;;284.33;;
16282;SDS011;8249;48.708;9.030;2023-06-10T06:36:48;296.20;;;283.23;;
16282;SDS011;8249;48.708;9.030;2023-06-10T06:39:16;242.63;;;231.23;;
16282;SDS011;8249;48.708;9.030;2023-06-10T06:41:44;213.38;;;203.70;;
16282;SDS011;8249;48.708;9.030;2023-06-10T06:44:12;233.07;;;222.10;;
16282;SDS011;8249;48.708;9.030;2023-06-10T06:46:43;208.05;;;198.75;;
16282;SDS011;8249;48.708;9.030;2023-06-10T06:49:09;226.02;;;215.95;;
16282;SDS011;8249;48.708;9.030;2023-06-10T06:51:36;176.82;;;168.73;;
16282;SDS011;8249;48.708;9.030;2023-06-10T06:54:03;219.63;;;209.30;;
16282;SDS011;8249;48.708;9.030;2023-06-10T06:56:30;224.07;;;213.63;;
16282;SDS011;8249;48.708;9.030;2023-06-10T06:58:57;91.82;;;87.70;;
16282;SDS011;8249;48.708;9.030;2023-06-10T07:01:25;128.45;;;122.97;;
16282;SDS011;8249;48.708;9.030;2023-06-10T07:03:52;105.95;;;101.32;;
16282;SDS011;8249;48.708;9.030;2023-06-10T07:06:19;99.15;;;94.88;;
16282;SDS011;8249;48.708;9.030;2023-06-10T07:08:46;118.00;;;112.97;;
16282;SDS011;8249;48.708;9.030;2023-06-10T07:11:15;124.00;;;118.75;;
16282;SDS011;8249;48.708;9.030;2023-06-10T07:13:42;137.02;;;131.13;;
16282;SDS011;8249;48.708;9.030;2023-06-10T07:16:09;127.03;;;121.53;;
16282;SDS011;8249;48.708;9.030;2023-06-10T07:18:38;70.78;;;67.65;;
16282;SDS011;8249;48.708;9.030;2023-06-10T07:21:04;117.63;;;112.60;;
16282;SDS011;8249;48.708;9.030;2023-06-10T07:23:31;110.05;;;105.25;;
16282;SDS011;8249;48.708;9.030;2023-06-10T07:25:58;73.95;;;70.60;;
16282;SDS011;8249;48.708;9.030;2023-06-10T07:28:25;114.80;;;109.90;;
16282;SDS011;8249;48.708;9.030;2023-06-10T07:30:52;86.45;;;82.68;;
16282;SDS011;8249;48.708;9.030;2023-06-10T07:33:19;85.47;;;81.60;;
16282;SDS011;8249;48.708;9.030;2023-06-10T07:35:50;93.80;;;89.47;;
16282;SDS011;8249;48.708;9.030;2023-06-10T07:38:17;122.93;;;117.32;;
16282;SDS011;8249;48.708;9.030;2023-06-10T07:40:44;93.75;;;89.47;;
16282;SDS011;8249;48.708;9.030;2023-06-10T07:43:11;200.55;;;191.07;;
16282;SDS011;8249;48.708;9.030;2023-06-10T07:45:39;200.95;;;191.52;;
16282;SDS011;8249;48.708;9.030;2023-06-10T07:48:06;175.80;;;167.45;;
16282;SDS011;8249;48.708;9.030;2023-06-10T07:50:32;156.18;;;148.75;;
16282;SDS011;8249;48.708;9.030;2023-06-10T07:53:01;164.57;;;156.95;;
16282;SDS011;8249;48.708;9.030;2023-06-10T07:55:28;178.18;;;170.07;;
16282;SDS011;8249;48.708;9.030;2023-06-10T07:57:55;99.63;;;94.70;;
16282;SDS011;8249;48.708;9.030;2023-06-10T08:00:22;127.75;;;121.90;;
16282;SDS011;8249;48.708;9.030;2023-06-10T08:02:49;134.85;;;128.82;;
16282;SDS011;8249;48.708;9.030;2023-06-10T08:05:17;123.15;;;117.50;;
16282;SDS011;8249;48.708;9.030;2023-06-10T08:07:44;98.07;;;93.40;;
16282;SDS011;8249;48.708;9.030;2023-06-10T08:10:12;78.85;;;75.38;;
16282;SDS011;8249;48.708;9.030;2023-06-10T08:12:39;61.95;;;59.28;;
16282;SDS011;8249;48.708;9.030;2023-06-10T08:15:07;73.80;;;70.50;;
16282;SDS011;8249;48.708;9.030;2023-06-10T08:17:34;79.78;;;76.18;;
16282;SDS011;8249;48.708;9.030;2023-06-10T08:20:01;78.97;;;75.50;;
16282;SDS011;8249;48.708;9.030;2023-06-10T08:22:28;90.05;;;86.00;;
16282;SDS011;8249;48.708;9.030;2023-06-10T08:24:55;63.58;;;60.80;;
16282;SDS011;8249;48.708;9.030;2023-06-10T08:27:23;42.60;;;40.78;;
16282;SDS011;8249;48.708;9.030;2023-06-10T08:29:51;51.70;;;49.40;;
16282;SDS011;8249;48.708;9.030;2023-06-10T08:32:18;49.83;;;47.70;;
16282;SDS011;8249;48.708;9.030;2023-06-10T08:34:44;40.90;;;39.13;;
16282;SDS011;8249;48.708;9.030;2023-06-10T08:37:11;50.20;;;48.00;;
16282;SDS011;8249;48.708;9.030;2023-06-10T08:39:38;51.30;;;49.05;;
16282;SDS011;8249;48.708;9.030;2023-06-10T08:42:09;49.83;;;47.63;;
16282;SDS011;8249;48.708;9.030;2023-06-10T08:44:44;46.70;;;44.55;;
16282;SDS011;8249;48.708;9.030;2023-06-10T08:47:13;50.85;;;48.60;;
16282;SDS011;8249;48.708;9.030;2023-06-10T08:49:42;50.80;;;48.47;;
16282;SDS011;8249;48.708;9.030;2023-06-10T08:52:11;62.30;;;59.65;;
16282;SDS011;8249;48.708;9.030;2023-06-10T08:54:42;69.55;;;66.43;;
16282;SDS011;8249;48.708;9.030;2023-06-10T08:57:13;68.22;;;65.13;;
16282;SDS011;8249;48.708;9.030;2023-06-10T08:59:46;54.90;;;52.45;;
16282;SDS011;8249;48.708;9.030;2023-06-10T09:02:14;51.33;;;49.13;;
16282;SDS011;8249;48.708;9.030;2023-06-10T09:04:44;75.80;;;72.55;;
16282;SDS011;8249;48.708;9.030;2023-06-10T09:07:13;56.25;;;53.80;;
16282;SDS011;8249;48.708;9.030;2023-06-10T09:09:41;54.10;;;51.78;;
16282;SDS011;8249;48.708;9.030;2023-06-10T09:12:09;63.03;;;60.33;;
16282;SDS011;8249;48.708;9.030;2023-06-10T09:14:37;75.53;;;72.32;;
16282;SDS011;8249;48.708;9.030;2023-06-10T09:17:06;74.60;;;71.45;;
16282;SDS011;8249;48.708;9.030;2023-06-10T09:19:33;49.00;;;46.92;;
16282;SDS011;8249;48.708;9.030;2023-06-10T09:22:01;47.22;;;45.00;;
16282;SDS011;8249;48.708;9.030;2023-06-10T09:24:28;56.45;;;54.03;;
16282;SDS011;8249;48.708;9.030;2023-06-10T09:27:01;49.78;;;47.63;;
16282;SDS011;8249;48.708;9.030;2023-06-10T09:29:29;53.25;;;50.92;;
16282;SDS011;8249;48.708;9.030;2023-06-10T09:31:56;50.90;;;48.63;;
16282;SDS011;8249;48.708;9.030;2023-06-10T09:34:25;48.40;;;46.20;;
16282;SDS011;8249;48.708;9.030;2023-06-10T09:36:52;51.85;;;49.55;;
16282;SDS011;8249;48.708;9.030;2023-06-10T09:39:20;49.53;;;47.42;;
16282;SDS011;8249;48.708;9.030;2023-06-10T09:41:47;46.42;;;44.40;;
16282;SDS011;8249;48.708;9.030;2023-06-10T09:44:15;50.08;;;47.92;;
16282;SDS011;8249;48.708;9.030;2023-06-10T09:46:42;56.22;;;53.80;;
16282;SDS011;8249;48.708;9.030;2023-06-10T09:49:12;54.65;;;52.25;;
16282;SDS011;8249;48.708;9.030;2023-06-10T09:51:49;49.17;;;46.92;;
16282;SDS011;8249;48.708;9.030;2023-06-10T09:54:18;45.00;;;43.10;;
16282;SDS011;8249;48.708;9.030;2023-06-10T09:56:46;51.58;;;49.30;;
16282;SDS011;8249;48.708;9.030;2023-06-10T09:59:14;35.50;;;34.00;;
16282;SDS011;8249;48.708;9.030;2023-06-10T10:01:41;43.58;;;41.72;;
16282;SDS011;8249;48.708;9.030;2023-06-10T10:04:08;44.75;;;42.83;;
16282;SDS011;8249;48.708;9.030;2023-06-10T10:06:35;41.30;;;39.55;;
16282;SDS011;8249;48.708;9.030;2023-06-10T10:09:05;48.92;;;46.78;;
16282;SDS011;8249;48.708;9.030;2023-06-10T10:11:32;45.70;;;43.72;;
16282;SDS011;8249;48.708;9.030;2023-06-10T10:14:00;48.72;;;46.63;;
16282;SDS011;8249;48.708;9.030;2023-06-10T10:16:32;62.28;;;59.58;;
16282;SDS011;8249;48.708;9.030;2023-06-10T10:19:04;77.55;;;74.18;;
16282;SDS011;8249;48.708;9.030;2023-06-10T10:21:38;101.40;;;97.07;;
16282;SDS011;8249;48.708;9.030;2023-06-10T10:24:12;57.25;;;54.80;;
16282;SDS011;8249;48.708;9.030;2023-06-10T10:26:44;61.85;;;59.15;;
16282;SDS011;8249;48.708;9.030;2023-06-10T10:29:14;50.28;;;48.08;;
16282;SDS011;8249;48.708;9.030;2023-06-10T10:31:50;48.47;;;46.33;;
16282;SDS011;8249;48.708;9.030;2023-06-10T10:34:19;39.38;;;37.63;;
16282;SDS011;8249;48.708;9.030;2023-06-10T10:36:51;38.95;;;37.25;;
16282;SDS011;8249;48.708;9.030;2023-06-10T10:39:19;50.63;;;48.33;;
16282;SDS011;8249;48.708;9.030;2023-06-10T10:41:47;88.28;;;84.38;;
16282;SDS011;8249;48.708;9.030;2023-06-10T10:44:15;79.03;;;75.38;;
16282;SDS011;8249;48.708;9.030;2023-06-10T10:46:43;47.60;;;45.50;;
16282;SDS011;8249;48.708;9.030;2023-06-10T10:49:12;53.35;;;51.00;;
16282;SDS011;8249;48.708;9.030;2023-06-10T10:51:54;78.15;;;74.70;;
16282;SDS011;8249;48.708;9.030;2023-06-10T10:54:29;126.72;;;121.22;;
16282;SDS011;8249;48.708;9.030;2023-06-10T10:57:10;152.70;;;146.07;;
16282;SDS011;8249;48.708;9.030;2023-06-10T10:59:45;157.05;;;150.27;;
16282;SDS011;8249;48.708;9.030;2023-06-10T11:02:34;125.43;;;119.75;;
16282;SDS011;8249;48.708;9.030;2023-06-10T11:05:04;103.60;;;98.95;;
16282;SDS011;8249;48.708;9.030;2023-06-10T11:07:32;77.18;;;73.78;;
16282;SDS011;8249;48.708;9.030;2023-06-10T11:10:01;57.65;;;55.05;;
16282;SDS011;8249;48.708;9.030;2023-06-10T11:15:18;124.78;;;119.15;;
16282;SDS011;8249;48.708;9.030;2023-06-10T11:20:41;99.10;;;94.55;;
16282;SDS011;8249;48.708;9.030;2023-06-10T11:23:10;90.38;;;86.40;;
16282;SDS011;8249;48.708;9.030;2023-06-10T11:25:39;93.18;;;89.03;;
16282;SDS011;8249;48.708;9.030;2023-06-10T11:28:17;49.50;;;47.38;;
16282;SDS011;8249;48.708;9.030;2023-06-10T11:30:44;69.72;;;66.63;;
16282;SDS011;8249;48.708;9.030;2023-06-10T11:33:13;89.60;;;85.63;;
16282;SDS011;8249;48.708;9.030;2023-06-10T11:35:43;66.97;;;64.05;;
16282;SDS011;8249;48.708;9.030;2023-06-10T11:38:10;54.35;;;51.95;;
16282;SDS011;8249;48.708;9.030;2023-06-10T11:40:37;78.57;;;75.05;;
16282;SDS011;8249;48.708;9.030;2023-06-10T11:43:06;137.88;;;131.90;;
16282;SDS011;8249;48.708;9.030;2023-06-10T11:45:33;127.93;;;122.35;;
16282;SDS011;8249;48.708;9.030;2023-06-10T11:48:00;102.03;;;97.47;;
16282;SDS011;8249;48.708;9.030;2023-06-10T11:50:28;72.72;;;69.40;;
16282;SDS011;8249;48.708;9.030;2023-06-10T11:52:56;69.45;;;66.28;;
16282;SDS011;8249;48.708;9.030;2023-06-10T11:55:24;105.05;;;100.38;;
16282;SDS011;8249;48.708;9.030;2023-06-10T11:57:52;140.50;;;134.38;;
16282;SDS011;8249;48.708;9.030;2023-06-10T12:00:23;116.45;;;111.20;;
16282;SDS011;8249;48.708;9.030;2023-06-10T12:02:55;178.85;;;170.98;;
16282;SDS011;8249;48.708;9.030;2023-06-10T12:05:23;128.48;;;122.82;;
16282;SDS011;8249;48.708;9.030;2023-06-10T12:07:50;161.93;;;154.88;;
16282;SDS011;8249;48.708;9.030;2023-06-10T12:10:39;114.78;;;109.72;;
16282;SDS011;8249;48.708;9.030;2023-06-10T12:13:08;74.18;;;70.95;;
16282;SDS011;8249;48.708;9.030;2023-06-10T12:15:35;61.50;;;58.80;;
16282;SDS011;8249;48.708;9.030;2023-06-10T12:18:02;69.97;;;66.88;;
16282;SDS011;8249;48.708;9.030;2023-06-10T12:20:30;173.70;;;166.20;;
16282;SDS011;8249;48.708;9.030;2023-06-10T12:22:59;146.77;;;140.35;;
16282;SDS011;8249;48.708;9.030;2023-06-10T12:25:27;110.03;;;105.10;;
16282;SDS011;8249;48.708;9.030;2023-06-10T12:27:55;140.25;;;134.10;;
16282;SDS011;8249;48.708;9.030;2023-06-10T12:30:25;99.93;;;95.40;;
16282;SDS011;8249;48.708;9.030;2023-06-10T12:32:53;88.65;;;84.72;;
16282;SDS011;8249;48.708;9.030;2023-06-10T12:35:21;63.20;;;60.50;;
16282;SDS011;8249;48.708;9.030;2023-06-10T12:37:56;71.22;;;68.13;;
16282;SDS011;8249;48.708;9.030;2023-06-10T12:40:26;66.82;;;63.92;;
16282;SDS011;8249;48.708;9.030;2023-06-10T12:42:54;64.13;;;61.33;;
16282;SDS011;8249;48.708;9.030;2023-06-10T12:45:30;66.70;;;63.70;;
16282;SDS011;8249;48.708;9.030;2023-06-10T12:48:04;65.30;;;62.45;;
16282;SDS011;8249;48.708;9.030;2023-06-10T12:50:34;67.53;;;64.57;;
16282;SDS011;8249;48.708;9.030;2023-06-10T12:53:03;66.93;;;64.03;;
16282;SDS011;8249;48.708;9.030;2023-06-10T12:55:30;59.13;;;56.45;;
16282;SDS011;8249;48.708;9.030;2023-06-10T12:57:58;65.85;;;62.95;;
16282;SDS011;8249;48.708;9.030;2023-06-10T13:00:27;87.75;;;83.97;;
16282;SDS011;8249;48.708;9.030;2023-06-10T13:02:56;94.32;;;90.22;;
16282;SDS011;8249;48.708;9.030;2023-06-10T13:05:26;127.68;;;122.05;;
16282;SDS011;8249;48.708;9.030;2023-06-10T13:07:54;63.33;;;60.53;;
16282;SDS011;8249;48.708;9.030;2023-06-10T13:10:21;64.55;;;61.75;;
16282;SDS011;8249;48.708;9.030;2023-06-10T13:12:48;69.80;;;66.75;;
16282;SDS011;8249;48.708;9.030;2023-06-10T13:15:16;101.70;;;97.35;;
16282;SDS011;8249;48.708;9.030;2023-06-10T13:17:43;83.97;;;80.35;;
16282;SDS011;8249;48.708;9.030;2023-06-10T13:20:15;109.15;;;104.45;;
16282;SDS011;8249;48.708;9.030;2023-06-10T13:22:42;105.03;;;100.47;;
16282;SDS011;8249;48.708;9.030;2023-06-10T13:25:10;104.20;;;99.68;;
16282;SDS011;8249;48.708;9.030;2023-06-10T13:27:37;109.57;;;104.88;;
16282;SDS011;8249;48.708;9.030;2023-06-10T13:30:05;111.90;;;107.13;;
16282;SDS011;8249;48.708;9.030;2023-06-10T13:32:33;99.93;;;95.63;;
16282;SDS011;8249;48.708;9.030;2023-06-10T13:35:01;103.07;;;98.43;;
16282;SDS011;8249;48.708;9.030;2023-06-10T13:37:29;102.10;;;97.68;;
16282;SDS011;8249;48.708;9.030;2023-06-10T13:39:58;85.70;;;82.00;;
16282;SDS011;8249;48.708;9.030;2023-06-10T13:42:25;61.42;;;58.70;;
16282;SDS011;8249;48.708;9.030;2023-06-10T13:44:54;69.80;;;66.65;;
16282;SDS011;8249;48.708;9.030;2023-06-10T13:47:21;79.53;;;76.00;;
16282;SDS011;8249;48.708;9.030;2023-06-10T13:49:49;81.28;;;77.70;;
16282;SDS011;8249;48.708;9.030;2023-06-10T13:52:16;86.28;;;82.57;;
16282;SDS011;8249;48.708;9.030;2023-06-10T13:54:45;74.05;;;70.82;;
16282;SDS011;8249;48.708;9.030;2023-06-10T13:57:12;77.20;;;73.80;;
16282;SDS011;8249;48.708;9.030;2023-06-10T13:59:39;84.60;;;80.93;;
16282;SDS011;8249;48.708;9.030;2023-06-10T14:02:05;85.65;;;81.95;;
16282;SDS011;8249;48.708;9.030;2023-06-10T14:04:33;80.43;;;76.93;;
16282;SDS011;8249;48.708;9.030;2023-06-10T14:07:00;69.15;;;66.13;;
16282;SDS011;8249;48.708;9.030;2023-06-10T14:09:27;73.82;;;70.55;;
16282;SDS011;8249;48.708;9.030;2023-06-10T14:11:56;84.03;;;80.30;;
16282;SDS011;8249;48.708;9.030;2023-06-10T14:14:23;96.40;;;92.18;;
16282;SDS011;8249;48.708;9.030;2023-06-10T14:16:50;101.20;;;96.90;;
16282;SDS011;8249;48.708;9.030;2023-06-10T14:19:17;99.35;;;95.05;;
16282;SDS011;8249;48.708;9.030;2023-06-10T14:21:44;110.82;;;106.15;;
16282;SDS011;8249;48.708;9.030;2023-06-10T14:24:16;118.82;;;113.57;;
16282;SDS011;8249;48.708;9.030;2023-06-10T14:26:43;111.85;;;107.10;;
16282;SDS011;8249;48.708;9.030;2023-06-10T14:29:11;122.57;;;117.35;;
16282;SDS011;8249;48.708;9.030;2023-06-10T14:31:39;101.85;;;97.50;;